Fox Island, Washington
Current Conditions -  °F | °C
As of 9:53 AM on Monday 24 Nov 2014 (Local Time) from KTIW Reporting Station
Broken Clouds Broken Clouds  
Wind Chill: 40°   Ceiling: 4100
Heat Index: 43°   Visibility: 10mi
Dew Point: 39°   Wind: 5mph
Humidity: 86%   Direction: 160°SSE
Pressure: 30.33"   Gusts: NA
Location:  47.25°N, 122.63°W
Report Text: KTIW 241753Z 16004KT 10SM BKN041 06/04 A3033 RMK AO2 SLP272 T00610039 10061 20044 58006
Loading
Personal Weather Stations






























Interactive Weather Map New forecast layout! Learn more

10-Day Weather Forecast

Advertisements
Track Severe Weather on mobile